Time;durP1;ratioP1;P1;durP2;ratioP2;P2;SDS_P1;SDS_P2;PMS_P1;PMS_P2;Temp;Humidity;BMP_temperature;BMP_pressure;BME280_temperature;BME280_humidity;BME280_pressure;Samples;Min_cycle;Max_cycle;Signal;HPM_P1;HPM_P2
2022/06/22 00:00:40;;;;;;;3.13;2.20;;;27.20;43.60;;;;;;6050034;23;20385;-86
2022/06/22 00:03:09;;;;;;;3.60;2.50;;;27.20;43.50;;;;;;6119596;23;20396;-86
2022/06/22 00:05:49;;;;;;;3.20;2.30;;;27.20;43.50;;;;;;6119925;23;20412;-86
2022/06/22 00:08:46;;;;;;;2.87;2.30;;;27.20;43.60;;;;;;6119584;23;20454;-86
2022/06/22 00:11:21;;;;;;;2.73;2.23;;;27.20;43.60;;;;;;6120421;23;20428;-86
2022/06/22 00:14:02;;;;;;;3.47;2.40;;;27.20;43.60;;;;;;6119862;23;20467;-86
2022/06/22 00:16:39;;;;;;;2.27;2.07;;;27.20;43.60;;;;;;6096349;23;20389;-87
2022/06/22 00:19:28;;;;;;;2.70;2.37;;;27.20;43.50;;;;;;6120592;23;20400;-86
2022/06/22 00:22:28;;;;;;;3.70;2.40;;;27.20;43.50;;;;;;6146099;23;20401;-86
2022/06/22 00:25:29;;;;;;;4.20;2.40;;;27.20;43.50;;;;;;6145252;23;20384;-87
2022/06/22 00:28:26;;;;;;;;;;;;;;;;;;;;;
2022/06/22 00:31:23;;;;;;;1.87;1.67;;;27.10;43.30;;;;;;6145692;23;20417;-86
2022/06/22 00:34:15;;;;;;;2.30;1.87;;;27.10;43.10;;;;;;6119360;23;20373;-86
2022/06/22 00:36:47;;;;;;;2.30;1.70;;;27.10;43.30;;;;;;6146146;23;20353;-86
2022/06/22 00:39:25;;;;;;;3.00;1.87;;;27.10;43.10;;;;;;6119473;23;20373;-86
2022/06/22 00:42:00;;;;;;;4.00;1.83;;;27.10;43.10;;;;;;6119646;23;20371;-86
2022/06/22 00:44:32;;;;;;;4.10;1.90;;;27.10;43.20;;;;;;6144739;23;20403;-86
2022/06/22 00:47:21;;;;;;;3.10;1.67;;;27.10;43.10;;;;;;6144648;23;20369;-86
2022/06/22 00:49:50;;;;;;;2.57;1.50;;;27.10;43.20;;;;;;6119570;23;20384;-87
2022/06/22 00:52:32;;;;;;;1.93;1.70;;;27.10;43.00;;;;;;6144296;23;20436;-86
2022/06/22 00:55:02;;;;;;;3.03;2.03;;;27.10;43.00;;;;;;6118831;23;20374;-86
2022/06/22 00:58:09;;;;;;;2.10;1.80;;;27.10;43.10;;;;;;6119509;23;20385;-86
2022/06/22 01:00:43;;;;;;;1.63;1.50;;;27.10;43.00;;;;;;6142017;23;20392;-86
2022/06/22 01:03:35;;;;;;;2.43;1.37;;;27.10;43.00;;;;;;6114779;23;20409;-87
2022/06/22 01:06:25;;;;;;;1.60;1.47;;;27.10;43.00;;;;;;6090653;23;20473;-87
2022/06/22 01:09:12;;;;;;;3.80;2.00;;;27.10;43.00;;;;;;6089906;23;20374;-86
2022/06/22 01:12:45;;;;;;;2.47;1.87;;;27.00;42.90;;;;;;6088414;23;20425;-87
2022/06/22 01:16:08;;;;;;;2.17;1.70;;;27.10;43.00;;;;;;6070595;23;20393;-87
2022/06/22 01:18:58;;;;;;;2.40;2.20;;;27.00;42.90;;;;;;6113275;23;20378;-87
2022/06/22 01:21:39;;;;;;;1.90;1.60;;;27.00;42.90;;;;;;6115621;23;20351;-86
2022/06/22 01:31:44;;;;;;;1.80;1.70;;;27.00;43.30;;;;;;6114871;23;20413;-87
2022/06/22 01:35:02;;;;;;;;;;;;;;;;;;;;;
2022/06/22 01:37:41;;;;;;;1.90;1.70;;;26.90;42.70;;;;;;6034924;23;20356;-86
2022/06/22 01:40:13;;;;;;;1.97;1.67;;;26.90;42.60;;;;;;6089324;23;20385;-86
2022/06/22 01:43:09;;;;;;;2.00;1.70;;;26.90;42.60;;;;;;6089871;23;20385;-86
2022/06/22 01:53:24;;;;;;;1.90;1.70;;;26.90;42.40;;;;;;6026639;23;20443;-86
2022/06/22 01:55:54;;;;;;;1.70;1.60;;;26.90;42.40;;;;;;6023755;23;20392;-84
2022/06/22 01:58:22;;;;;;;1.77;1.67;;;26.90;42.40;;;;;;6021165;23;20383;-84
2022/06/22 02:01:27;;;;;;;1.73;1.63;;;26.90;42.40;;;;;;6024915;23;20419;-84
2022/06/22 02:04:42;;;;;;;2.60;1.90;;;26.90;42.30;;;;;;6015470;23;20395;-84
2022/06/22 02:10:52;;;;;;;4.33;1.83;;;26.90;42.40;;;;;;5953738;24;20458;-85
2022/06/22 02:14:03;;;;;;;2.20;1.93;;;26.90;42.40;;;;;;5970440;24;20506;-84
2022/06/22 02:17:02;;;;;;;3.53;2.00;;;26.90;42.50;;;;;;5943060;24;20482;-84
2022/06/22 02:19:29;;;;;;;2.60;2.20;;;26.90;42.60;;;;;;5942611;24;20396;-84
2022/06/22 02:21:58;;;;;;;2.13;1.93;;;26.80;42.60;;;;;;5965075;24;20398;-84
2022/06/22 02:25:28;;;;;;;;;;;;;;;;;;;;;
2022/06/22 02:27:49;;;;;;;2.00;1.80;;;26.90;42.70;;;;;;5963915;24;20406;-84
2022/06/22 02:30:20;;;;;;;3.17;1.97;;;26.80;42.60;;;;;;5965209;24;20390;-84
2022/06/22 02:32:46;;;;;;;2.10;1.90;;;26.90;42.70;;;;;;5965893;24;20410;-84
2022/06/22 02:35:25;;;;;;;2.83;2.03;;;26.90;42.70;;;;;;5965476;24;20426;-84
2022/06/22 02:38:02;;;;;;;2.53;2.30;;;26.90;42.70;;;;;;5964624;24;20405;-84
2022/06/22 02:46:40;;;;;;;2.60;2.20;;;26.90;42.80;;;;;;6051211;23;20383;-82
2022/06/22 02:49:30;;;;;;;2.77;2.07;;;26.80;42.80;;;;;;6027294;23;20387;-82
2022/06/22 02:52:02;;;;;;;3.70;2.30;;;26.90;42.90;;;;;;6097054;23;20428;-82
2022/06/22 02:54:44;;;;;;;2.73;2.40;;;26.80;42.80;;;;;;6114698;23;20377;-82
2022/06/22 02:57:44;;;;;;;2.10;1.90;;;26.80;42.80;;;;;;6113721;23;20416;-83
2022/06/22 03:00:21;;;;;;;3.37;2.67;;;26.80;42.80;;;;;;6139590;23;20385;-83
2022/06/22 03:02:49;;;;;;;2.17;1.80;;;26.80;42.90;;;;;;6114764;23;20400;-83
2022/06/22 03:05:24;;;;;;;4.83;2.10;;;26.80;42.90;;;;;;6140264;23;20793;-84
2022/06/22 03:07:55;;;;;;;2.47;2.27;;;26.80;42.90;;;;;;6139746;23;20425;-84
2022/06/22 03:10:23;;;;;;;2.30;1.70;;;26.80;42.90;;;;;;6139444;23;20674;-84
2022/06/22 03:12:57;;;;;;;2.83;1.90;;;26.80;42.80;;;;;;6113992;23;20447;-84
2022/06/22 03:15:29;;;;;;;3.47;2.60;;;26.80;42.90;;;;;;6139690;23;20357;-84
2022/06/22 03:18:02;;;;;;;2.73;2.37;;;26.80;42.90;;;;;;6113265;23;20385;-82
2022/06/22 03:20:44;;;;;;;2.70;2.00;;;26.80;42.90;;;;;;6113630;23;20381;-82
2022/06/22 03:23:42;;;;;;;2.30;2.10;;;26.80;42.90;;;;;;6142048;23;20358;-82
2022/06/22 03:26:57;;;;;;;;;;;;;;;;;;;;;
2022/06/22 03:29:27;;;;;;;2.30;2.10;;;26.80;43.10;;;;;;6143174;23;20499;-83
2022/06/22 03:32:02;;;;;;;2.10;1.90;;;26.80;43.10;;;;;;6116291;23;20420;-83
2022/06/22 03:34:37;;;;;;;1.80;1.70;;;26.80;43.10;;;;;;6117335;23;20368;-83
2022/06/22 03:37:36;;;;;;;2.13;1.93;;;26.80;43.10;;;;;;6119124;23;20878;-83
2022/06/22 03:40:22;;;;;;;2.20;2.00;;;26.80;43.10;;;;;;6116477;23;20412;-83
2022/06/22 03:43:35;;;;;;;2.60;2.40;;;26.80;43.20;;;;;;6119363;23;20409;-83
2022/06/22 03:46:16;;;;;;;2.43;2.20;;;26.80;43.20;;;;;;6131842;23;20385;-83
2022/06/22 03:49:01;;;;;;;2.43;1.83;;;26.80;43.20;;;;;;6116383;23;20373;-82
2022/06/22 03:58:48;;;;;;;;;;;;;;;;;;;;;
2022/06/22 04:07:14;;;;;;;1.90;1.60;;;26.80;43.20;;;;;;6044916;23;20412;-83
2022/06/22 04:09:55;;;;;;;2.53;2.00;;;26.80;43.20;;;;;;6028857;23;20392;-83
2022/06/22 04:12:48;;;;;;;2.10;1.70;;;26.80;43.20;;;;;;6029942;23;20435;-84
2022/06/22 04:15:34;;;;;;;2.80;1.70;;;26.80;43.20;;;;;;6019902;23;20407;-85
2022/06/22 04:18:19;;;;;;;3.40;2.10;;;26.80;43.20;;;;;;6051458;23;20390;-86
2022/06/22 04:20:51;;;;;;;2.10;1.73;;;26.80;43.20;;;;;;6052698;23;20395;-83
2022/06/22 04:23:32;;;;;;;2.27;1.70;;;26.80;43.10;;;;;;6028549;23;20388;-84
2022/06/22 04:26:11;;;;;;;1.90;1.70;;;26.90;43.30;;;;;;6052718;23;20463;-84
2022/06/22 04:28:41;;;;;;;2.97;1.90;;;26.90;43.30;;;;;;6052455;23;20387;-84
2022/06/22 04:31:13;;;;;;;2.33;1.70;;;26.90;43.30;;;;;;6088985;23;20460;-84
2022/06/22 04:34:36;;;;;;;3.10;1.80;;;26.90;43.30;;;;;;6115718;23;20425;-85
2022/06/22 04:37:54;;;;;;;2.53;1.67;;;26.90;43.30;;;;;;6140940;23;20365;-85
2022/06/22 04:40:44;;;;;;;2.47;2.27;;;26.90;43.20;;;;;;6055997;23;20441;-84
2022/06/22 04:43:31;;;;;;;2.23;1.70;;;26.90;43.10;;;;;;6114637;23;20745;-83
2022/06/22 04:46:58;;;;;;;2.10;1.90;;;26.90;43.20;;;;;;6113064;23;20383;-83
2022/06/22 04:49:33;;;;;;;1.90;1.70;;;26.90;43.20;;;;;;6136840;23;20381;-84
2022/06/22 04:52:55;;;;;;;1.97;1.77;;;26.90;43.20;;;;;;6114796;23;20994;-84
2022/06/22 04:55:26;;;;;;;1.60;1.50;;;26.90;43.20;;;;;;6114395;23;20420;-83
2022/06/22 04:58:20;;;;;;;1.83;1.63;;;26.90;43.20;;;;;;6140532;23;20369;-83
2022/06/22 05:01:02;;;;;;;1.50;1.40;;;26.90;43.20;;;;;;6114051;23;20391;-83
2022/06/22 05:03:29;;;;;;;1.67;1.50;;;26.90;43.20;;;;;;6114805;23;20408;-83
2022/06/22 05:09:27;;;;;;;2.23;1.90;;;26.90;43.20;;;;;;6141325;23;20361;-83
2022/06/22 05:12:58;;;;;;;;;;;;;;;;;;;;;
2022/06/22 05:19:37;;;;;;;1.57;1.47;;;26.90;43.50;;;;;;6050389;23;20431;-83
2022/06/22 05:22:26;;;;;;;1.70;1.60;;;26.90;43.50;;;;;;6011748;23;20380;-83
2022/06/22 05:28:43;;;;;;;3.07;1.50;;;26.90;43.60;;;;;;5938281;24;20375;-83
2022/06/22 05:32:07;;;;;;;1.80;1.60;;;27.00;43.50;;;;;;5945107;23;20434;-85
2022/06/22 05:34:56;;;;;;;1.57;1.47;;;27.00;43.50;;;;;;5943210;24;20398;-85
2022/06/22 05:37:55;;;;;;;;;;;;;;;;;;;;;
2022/06/22 05:40:59;;;;;;;1.60;1.50;;;27.00;43.60;;;;;;6050397;23;20399;-84
2022/06/22 05:43:43;;;;;;;;;;;;;;;;;;;;;
2022/06/22 05:46:37;;;;;;;1.63;1.53;;;27.00;43.50;;;;;;6111024;23;20416;-84
2022/06/22 05:50:01;;;;;;;2.27;1.50;;;27.00;43.50;;;;;;6138463;23;20439;-84
2022/06/22 05:52:52;;;;;;;1.60;1.30;;;27.00;43.50;;;;;;5990896;23;20440;-84
2022/06/22 05:55:48;;;;;;;1.83;1.53;;;27.00;43.60;;;;;;6111790;23;20389;-85
2022/06/22 05:58:37;;;;;;;2.00;1.60;;;27.00;43.50;;;;;;6083222;23;20389;-84
2022/06/22 06:01:18;;;;;;;2.90;1.70;;;27.00;43.60;;;;;;6137334;23;20393;-84
2022/06/22 06:14:05;;;;;;;1.60;1.43;;;27.00;43.60;;;;;;6139330;23;20445;-84
2022/06/22 06:17:13;;;;;;;1.97;1.77;;;27.00;43.70;;;;;;6113775;23;20401;-83
2022/06/22 06:19:44;;;;;;;1.60;1.50;;;27.00;43.60;;;;;;6129458;23;20384;-83
2022/06/22 06:22:13;;;;;;;2.03;1.57;;;27.10;43.70;;;;;;6113841;23;20856;-83
2022/06/22 06:28:34;;;;;;;3.63;1.63;;;27.10;43.70;;;;;;6139911;23;20360;-84
2022/06/22 06:31:25;;;;;;;2.23;1.60;;;27.10;43.70;;;;;;6139000;23;20496;-83
2022/06/22 06:34:00;;;;;;;1.67;1.47;;;27.00;43.60;;;;;;6138485;23;20381;-84
2022/06/22 06:36:46;;;;;;;2.07;1.60;;;27.10;43.70;;;;;;6113452;23;20403;-83
2022/06/22 06:39:29;;;;;;;1.90;1.80;;;27.10;43.70;;;;;;6139423;23;20419;-84
2022/06/22 06:42:19;;;;;;;1.60;1.47;;;27.10;43.60;;;;;;6116004;23;20448;-84
2022/06/22 06:45:24;;;;;;;1.83;1.63;;;27.10;43.60;;;;;;6113850;23;20720;-83
2022/06/22 06:48:08;;;;;;;1.73;1.63;;;27.10;43.60;;;;;;6095866;23;20391;-83
2022/06/22 06:50:42;;;;;;;2.33;2.13;;;27.10;43.60;;;;;;6140426;23;20732;-83
2022/06/22 06:53:28;;;;;;;2.60;1.70;;;27.10;43.60;;;;;;6089444;23;20384;-84
2022/06/22 06:56:26;;;;;;;;;;;;;;;;;;;;;
2022/06/22 07:02:05;;;;;;;;;;;;;;;;;;;;;
2022/06/22 07:04:41;;;;;;;2.17;1.70;;;27.10;43.70;;;;;;6138188;23;20751;-83
2022/06/22 07:14:59;;;;;;;1.83;1.50;;;27.10;43.80;;;;;;5999192;24;20398;-86
2022/06/22 07:18:30;;;;;;;;;;;;;;;;;;;;;
2022/06/22 07:21:34;;;;;;;1.53;1.43;;;27.10;43.80;;;;;;5915414;24;20396;-85
2022/06/22 07:31:15;;;;;;;2.43;1.50;;;27.10;43.80;;;;;;5887683;24;20435;-85
2022/06/22 07:33:51;;;;;;;1.97;1.50;;;27.10;43.90;;;;;;5866260;24;20401;-85
2022/06/22 07:36:36;;;;;;;2.43;2.07;;;27.10;43.90;;;;;;5888381;24;20475;-87
2022/06/22 07:59:56;;;;;;;2.73;1.80;;;27.10;44.00;;;;;;5970029;24;20350;-85
2022/06/22 08:05:55;;;;;;;1.43;1.13;;;27.10;44.10;;;;;;5969995;24;20365;-86
2022/06/22 08:08:52;;;;;;;1.70;1.30;;;27.10;44.10;;;;;;5946596;24;20391;-86
2022/06/22 08:11:55;;;;;;;2.83;1.53;;;27.10;44.10;;;;;;5970279;24;20471;-86
2022/06/22 08:15:11;;;;;;;2.07;1.70;;;27.10;44.10;;;;;;5946549;24;20748;-87
2022/06/22 08:18:14;;;;;;;2.00;1.80;;;27.20;44.20;;;;;;5976091;23;20395;-87
2022/06/22 08:41:23;;;;;;;1.73;1.43;;;27.10;44.20;;;;;;5970829;23;20395;-86
2022/06/22 08:44:47;;;;;;;2.80;1.70;;;27.10;44.30;;;;;;5970423;24;20430;-86
2022/06/22 08:48:06;;;;;;;1.80;1.70;;;27.10;44.30;;;;;;5914319;24;20428;-86
2022/06/22 08:51:01;;;;;;;1.93;1.40;;;27.10;44.30;;;;;;5891539;24;20388;-86
2022/06/22 08:54:32;;;;;;;;;;;;;;;;;;;;;
2022/06/22 09:11:39;;;;;;;;;;;;;;;;;;;;;
2022/06/22 09:15:24;;;;;;;1.73;1.63;;;27.10;44.40;;;;;;5878044;24;20419;-86
2022/06/22 09:28:36;;;;;;;2.33;1.30;;;27.10;44.50;;;;;;5809708;24;20402;-86
2022/06/22 09:45:31;;;;;;;2.13;1.73;;;27.10;44.50;;;;;;5808223;24;20396;-84
2022/06/22 09:48:25;;;;;;;1.60;1.40;;;27.20;44.60;;;;;;5808673;24;20395;-84
2022/06/22 09:50:54;;;;;;;1.40;1.20;;;27.10;44.50;;;;;;5807774;24;20805;-84
2022/06/22 09:53:54;;;;;;;1.60;1.50;;;27.20;44.60;;;;;;5828188;24;20841;-84
2022/06/22 09:56:57;;;;;;;1.30;1.20;;;27.20;44.60;;;;;;5866388;24;20400;-84
2022/06/22 09:59:36;;;;;;;2.40;1.60;;;27.20;44.60;;;;;;5887470;24;20491;-83
2022/06/22 10:02:35;;;;;;;2.00;1.60;;;27.20;44.60;;;;;;5900714;24;20387;-84
2022/06/22 10:05:04;;;;;;;1.60;1.50;;;27.20;44.60;;;;;;5942477;24;20387;-84
2022/06/22 10:08:09;;;;;;;2.17;1.53;;;27.20;44.50;;;;;;5919360;24;20456;-84
2022/06/22 10:11:00;;;;;;;1.60;1.50;;;27.20;44.60;;;;;;5941607;24;20379;-84
2022/06/22 10:13:35;;;;;;;1.67;1.57;;;27.20;44.50;;;;;;5969660;24;20398;-84
2022/06/22 10:16:31;;;;;;;1.97;1.37;;;27.20;44.60;;;;;;5971219;24;20377;-83
2022/06/22 10:19:10;;;;;;;1.70;1.43;;;27.20;44.50;;;;;;5996783;24;20419;-83
2022/06/22 10:21:42;;;;;;;2.03;1.30;;;27.20;44.60;;;;;;5996949;24;20366;-84
2022/06/22 10:28:18;;;;;;;1.40;1.30;;;27.20;44.60;;;;;;5915040;24;20429;-84
2022/06/22 10:31:11;;;;;;;1.60;1.43;;;27.20;44.60;;;;;;5892923;24;20387;-84
2022/06/22 10:34:01;;;;;;;1.97;1.50;;;27.20;44.60;;;;;;5938476;24;20418;-84
2022/06/22 10:36:54;;;;;;;1.67;1.57;;;27.20;44.60;;;;;;5914760;24;20384;-84
2022/06/22 10:39:27;;;;;;;1.50;1.40;;;27.20;44.60;;;;;;5916017;24;20372;-84
2022/06/22 10:45:20;;;;;;;2.10;1.50;;;27.20;44.70;;;;;;5916464;24;20448;-84
2022/06/22 10:47:52;;;;;;;1.73;1.63;;;27.20;44.60;;;;;;5939437;24;20388;-84
2022/06/22 10:50:57;;;;;;;1.70;1.60;;;27.20;44.70;;;;;;5916439;24;20399;-84
2022/06/22 10:53:44;;;;;;;2.27;1.87;;;27.30;44.70;;;;;;5908582;24;20411;-84
2022/06/22 10:56:35;;;;;;;1.70;1.40;;;27.30;44.70;;;;;;5962036;23;20392;-84
2022/06/22 10:59:29;;;;;;;1.50;1.40;;;27.30;44.70;;;;;;6028682;23;20392;-84
2022/06/22 11:02:10;;;;;;;1.40;1.30;;;27.30;44.70;;;;;;6100276;23;20381;-84
2022/06/22 11:04:54;;;;;;;1.60;1.50;;;27.30;44.70;;;;;;6117072;23;20358;-83
2022/06/22 11:07:35;;;;;;;1.57;1.47;;;27.30;44.80;;;;;;6116739;23;20425;-84
2022/06/22 11:10:33;;;;;;;1.93;1.63;;;27.30;44.80;;;;;;6092194;23;20404;-84
2022/06/22 11:13:38;;;;;;;1.73;1.40;;;27.30;44.80;;;;;;6113691;23;20472;-84
2022/06/22 11:16:09;;;;;;;2.30;1.70;;;27.30;44.80;;;;;;6120110;23;20408;-84
2022/06/22 11:19:08;;;;;;;1.73;1.50;;;27.30;44.80;;;;;;6119610;23;20487;-83
2022/06/22 11:22:11;;;;;;;1.90;1.40;;;27.30;44.80;;;;;;6119889;23;20384;-84
2022/06/22 11:24:58;;;;;;;1.70;1.50;;;27.30;44.80;;;;;;6119416;23;20393;-84
2022/06/22 11:30:51;;;;;;;1.70;1.60;;;27.30;44.80;;;;;;6145870;23;20373;-84
2022/06/22 11:33:49;;;;;;;1.83;1.73;;;27.20;44.80;;;;;;6056334;23;20400;-83
2022/06/22 11:36:52;;;;;;;1.60;1.50;;;27.30;44.80;;;;;;6033985;23;20387;-83
2022/06/22 11:39:45;;;;;;;1.77;1.37;;;27.30;44.90;;;;;;6057133;23;20387;-83
2022/06/22 11:42:29;;;;;;;1.70;1.60;;;27.20;44.80;;;;;;6057847;23;20440;-83
2022/06/22 11:48:31;;;;;;;1.90;1.70;;;27.30;44.90;;;;;;6057881;23;20440;-84
2022/06/22 11:51:03;;;;;;;1.90;1.70;;;27.30;44.90;;;;;;6057102;23;20427;-84
2022/06/22 11:54:09;;;;;;;1.50;1.40;;;27.30;44.90;;;;;;6057257;23;20390;-84
2022/06/22 11:56:55;;;;;;;1.70;1.60;;;27.30;44.90;;;;;;6058158;23;20378;-84
2022/06/22 11:59:56;;;;;;;2.03;1.53;;;27.30;44.90;;;;;;6031994;23;20393;-84
2022/06/22 12:02:55;;;;;;;1.77;1.50;;;27.30;44.90;;;;;;6054697;23;20407;-83
2022/06/22 12:05:32;;;;;;;2.07;1.87;;;27.30;44.90;;;;;;6056249;23;20408;-84
2022/06/22 12:08:14;;;;;;;1.50;1.40;;;27.30;44.90;;;;;;6055841;23;20367;-83
2022/06/22 12:10:46;;;;;;;3.23;1.60;;;27.30;44.90;;;;;;6118939;23;20381;-84
2022/06/22 12:13:22;;;;;;;1.70;1.60;;;27.30;44.90;;;;;;6119225;23;20413;-84
2022/06/22 12:15:50;;;;;;;3.00;1.60;;;27.30;44.90;;;;;;6119404;23;20387;-84
2022/06/22 12:18:44;;;;;;;1.80;1.70;;;27.30;44.90;;;;;;6119296;23;20420;-84
2022/06/22 12:21:31;;;;;;;1.60;1.50;;;27.30;44.90;;;;;;6119124;23;20385;-84
2022/06/22 12:24:22;;;;;;;2.73;1.70;;;27.30;45.00;;;;;;6119289;23;20380;-83
2022/06/22 12:27:38;;;;;;;1.70;1.53;;;27.30;45.00;;;;;;6119411;23;20401;-84
2022/06/22 12:30:04;;;;;;;1.50;1.40;;;27.30;45.00;;;;;;6106847;23;20396;-84
2022/06/22 12:32:43;;;;;;;1.77;1.60;;;27.30;45.00;;;;;;6145020;23;20412;-84
2022/06/22 12:35:31;;;;;;;3.10;1.87;;;27.30;45.00;;;;;;6118273;23;20153;-84
2022/06/22 12:38:17;;;;;;;2.70;1.60;;;27.30;45.00;;;;;;6119766;23;20393;-83
2022/06/22 12:41:02;;;;;;;1.50;1.40;;;27.30;45.00;;;;;;6119997;23;20415;-83
2022/06/22 12:43:52;;;;;;;1.67;1.57;;;27.30;45.00;;;;;;6122653;23;20816;-84
2022/06/22 12:46:39;;;;;;;3.47;2.50;;;27.30;45.00;;;;;;6122877;23;20487;-84
2022/06/22 12:49:53;;;;;;;2.03;1.83;;;27.30;45.00;;;;;;6122644;23;20408;-85
2022/06/22 13:12:30;;;;;;;2.20;1.90;;;27.30;45.10;;;;;;6054689;23;20494;-84
2022/06/22 13:18:34;;;;;;;2.50;2.30;;;27.30;45.10;;;;;;6055856;23;20477;-86
2022/06/22 13:21:16;;;;;;;1.50;1.40;;;27.30;45.20;;;;;;6055697;23;20383;-84
2022/06/22 13:23:51;;;;;;;1.93;1.40;;;27.30;45.20;;;;;;6095178;23;20427;-84
2022/06/22 13:26:39;;;;;;;1.77;1.63;;;27.30;45.20;;;;;;6119239;23;20380;-84
2022/06/22 13:29:29;;;;;;;2.00;1.80;;;27.30;45.10;;;;;;6118843;23;20379;-83
2022/06/22 13:32:00;;;;;;;1.90;1.60;;;27.30;45.10;;;;;;6118482;23;20444;-84
2022/06/22 13:34:35;;;;;;;2.13;1.80;;;27.40;45.20;;;;;;6094944;23;20388;-84
2022/06/22 13:37:20;;;;;;;1.97;1.23;;;27.40;45.20;;;;;;6118427;23;20387;-84
2022/06/22 13:40:09;;;;;;;1.70;1.60;;;27.40;45.20;;;;;;6118215;23;20400;-84
2022/06/22 13:43:13;;;;;;;1.93;1.77;;;27.40;45.10;;;;;;6118192;23;20405;-84
2022/06/22 13:46:13;;;;;;;2.27;1.87;;;27.40;45.20;;;;;;6118786;23;20447;-83
2022/06/22 13:48:58;;;;;;;1.90;1.63;;;27.40;45.20;;;;;;6117985;23;20385;-83
2022/06/22 13:51:29;;;;;;;2.70;1.83;;;27.40;45.20;;;;;;6118396;23;20413;-83
2022/06/22 13:54:26;;;;;;;1.70;1.60;;;27.40;45.20;;;;;;6117880;23;20369;-83
2022/06/22 13:57:13;;;;;;;1.57;1.47;;;27.40;45.20;;;;;;6131822;23;20389;-83
2022/06/22 14:00:10;;;;;;;1.80;1.70;;;27.40;45.20;;;;;;6118175;23;20377;-84
2022/06/22 14:02:56;;;;;;;1.97;1.87;;;27.40;45.20;;;;;;6117818;23;20373;-84
2022/06/22 14:05:46;;;;;;;2.60;1.63;;;27.40;45.20;;;;;;6117533;23;20385;-83
2022/06/22 14:08:27;;;;;;;2.20;1.80;;;27.40;45.20;;;;;;6117775;23;20377;-82
2022/06/22 14:11:18;;;;;;;4.50;1.57;;;27.40;45.20;;;;;;6117773;23;20377;-83
2022/06/22 14:13:47;;;;;;;2.00;1.80;;;27.40;45.20;;;;;;6136782;23;20401;-84
2022/06/22 14:16:42;;;;;;;1.77;1.47;;;27.40;45.20;;;;;;6143634;23;20742;-84
2022/06/22 14:19:29;;;;;;;2.00;1.90;;;27.50;45.20;;;;;;6117839;23;20365;-83
2022/06/22 14:22:06;;;;;;;2.53;1.70;;;27.40;45.20;;;;;;6118034;23;20388;-83
2022/06/22 14:24:37;;;;;;;2.40;2.07;;;27.40;45.20;;;;;;6117596;23;20467;-84
2022/06/22 14:27:42;;;;;;;2.10;1.70;;;27.40;45.20;;;;;;6117544;23;20871;-86
2022/06/22 14:30:13;;;;;;;1.93;1.67;;;27.50;45.20;;;;;;6117797;23;20416;-84
2022/06/22 14:32:57;;;;;;;2.07;1.87;;;27.40;45.20;;;;;;6119261;23;20483;-84
2022/06/22 14:36:01;;;;;;;1.77;1.67;;;27.50;45.30;;;;;;6118344;23;20401;-84
2022/06/22 14:39:11;;;;;;;1.67;1.57;;;27.50;45.30;;;;;;6143766;23;20400;-84
2022/06/22 14:41:47;;;;;;;1.50;1.40;;;27.50;45.30;;;;;;6097162;23;20389;-85
2022/06/22 14:51:26;;;;;;;1.70;1.60;;;27.50;45.30;;;;;;6143719;23;20400;-87
2022/06/22 14:54:37;;;;;;;;;;;;;;;;;;;;;
2022/06/22 15:04:16;;;;;;;1.90;1.60;;;27.50;45.30;;;;;;6144134;23;20357;-87
2022/06/22 15:06:55;;;;;;;2.27;2.07;;;27.40;45.30;;;;;;6114462;23;20381;-87
2022/06/22 15:09:52;;;;;;;1.80;1.70;;;27.40;45.30;;;;;;6142319;23;20345;-87
2022/06/22 15:15:27;;;;;;;2.43;1.70;;;27.50;45.30;;;;;;6141834;23;20352;-85
2022/06/22 15:18:03;;;;;;;1.80;1.57;;;27.40;45.30;;;;;;6111949;23;20389;-84
2022/06/22 15:21:10;;;;;;;1.93;1.83;;;27.50;45.30;;;;;;6138677;23;20349;-83
2022/06/22 15:24:22;;;;;;;;;;;;;;;;;;;;;
2022/06/22 15:33:20;;;;;;;2.90;1.87;;;27.50;45.30;;;;;;6141236;23;20359;-83
2022/06/22 15:36:20;;;;;;;3.30;1.90;;;27.50;45.40;;;;;;6115037;23;20388;-84
2022/06/22 15:39:27;;;;;;;1.80;1.70;;;27.40;45.30;;;;;;6109522;23;20453;-83
2022/06/22 15:42:24;;;;;;;1.80;1.70;;;27.50;45.40;;;;;;6115055;23;20386;-83
2022/06/22 15:45:29;;;;;;;1.83;1.73;;;27.50;45.40;;;;;;6133441;23;20377;-83
2022/06/22 15:48:06;;;;;;;2.20;2.00;;;27.50;45.50;;;;;;6088320;23;20882;-83
2022/06/22 15:50:59;;;;;;;3.37;1.80;;;27.50;45.50;;;;;;6139670;23;20443;-84
2022/06/22 15:53:50;;;;;;;2.63;1.60;;;27.50;45.60;;;;;;6113946;23;20458;-84
2022/06/22 15:56:26;;;;;;;1.70;1.60;;;27.50;45.60;;;;;;6139762;23;20361;-83
2022/06/22 15:59:13;;;;;;;1.70;1.60;;;27.50;45.70;;;;;;6113380;23;20381;-84
2022/06/22 16:01:59;;;;;;;2.03;1.37;;;27.50;45.60;;;;;;6113876;23;20381;-85
2022/06/22 16:04:35;;;;;;;1.87;1.77;;;27.50;45.70;;;;;;6138689;23;20449;-83
2022/06/22 16:07:38;;;;;;;2.07;1.73;;;27.50;45.70;;;;;;6138820;23;20431;-83
2022/06/22 16:10:16;;;;;;;2.73;1.50;;;27.60;45.70;;;;;;6099681;23;20389;-84
2022/06/22 16:15:54;;;;;;;1.80;1.70;;;27.60;45.70;;;;;;6140038;23;20380;-84
2022/06/22 16:18:59;;;;;;;2.10;1.90;;;27.50;45.70;;;;;;6115306;23;20377;-83
2022/06/22 16:21:36;;;;;;;3.33;1.83;;;27.60;45.70;;;;;;6116607;23;20436;-83
2022/06/22 16:24:27;;;;;;;2.60;1.97;;;27.60;45.80;;;;;;6116885;23;20365;-84
2022/06/22 16:27:15;;;;;;;1.83;1.73;;;27.60;45.80;;;;;;6145346;23;20357;-84
2022/06/22 16:29:54;;;;;;;2.10;1.73;;;27.60;45.80;;;;;;6146022;23;20357;-82
2022/06/22 16:32:51;;;;;;;2.10;1.70;;;27.60;45.80;;;;;;6143489;23;20707;-83
2022/06/22 16:38:58;;;;;;;2.20;1.57;;;27.60;45.80;;;;;;6129342;23;20380;-84
2022/06/22 16:41:54;;;;;;;2.23;1.50;;;27.60;45.80;;;;;;6115707;23;20381;-84
2022/06/22 16:44:49;;;;;;;1.87;1.40;;;27.60;45.80;;;;;;6116343;23;20416;-84
2022/06/22 16:47:21;;;;;;;2.30;1.80;;;27.60;45.80;;;;;;6142143;23;20368;-83
2022/06/22 16:49:58;;;;;;;2.60;1.73;;;27.60;45.90;;;;;;6141938;23;20882;-84
2022/06/22 16:52:33;;;;;;;3.00;1.60;;;27.60;45.90;;;;;;6115357;23;20455;-84
2022/06/22 16:55:16;;;;;;;2.20;1.63;;;27.60;45.80;;;;;;6115605;23;20388;-84
2022/06/22 16:57:55;;;;;;;2.87;1.90;;;27.60;45.80;;;;;;6116953;23;20876;-83
2022/06/22 17:00:27;;;;;;;2.17;1.60;;;27.60;45.80;;;;;;6117061;23;20377;-83
2022/06/22 17:02:59;;;;;;;1.70;1.57;;;27.60;45.80;;;;;;6144051;23;20396;-83
2022/06/22 17:05:34;;;;;;;1.73;1.63;;;27.60;45.80;;;;;;6119516;23;20381;-82
2022/06/22 17:08:26;;;;;;;2.43;1.70;;;27.70;45.90;;;;;;6116738;23;20767;-85
2022/06/22 17:11:07;;;;;;;1.97;1.57;;;27.70;45.90;;;;;;6144318;23;20346;-84
2022/06/22 17:13:45;;;;;;;1.70;1.50;;;27.70;45.90;;;;;;6113511;23;20420;-85
2022/06/22 17:16:36;;;;;;;7.33;1.90;;;27.70;45.90;;;;;;6114604;23;20381;-84
2022/06/22 17:19:19;;;;;;;1.70;1.60;;;27.70;45.90;;;;;;6114049;23;20437;-84
2022/06/22 17:22:15;;;;;;;1.80;1.70;;;27.70;45.90;;;;;;6111987;23;20382;-83
2022/06/22 17:25:28;;;;;;;;;;;;;;;;;;;;;
2022/06/22 17:28:02;;;;;;;2.20;2.00;;;27.70;45.90;;;;;;6112200;23;20390;-84
2022/06/22 17:31:10;;;;;;;1.70;1.60;;;27.70;46.50;;;;;;6110539;23;20394;-84
2022/06/22 17:34:28;;;;;;;;;;;;;;;;;;;;;
2022/06/22 17:37:07;;;;;;;1.63;1.53;;;27.70;46.00;;;;;;6112620;23;20672;-83
2022/06/22 17:39:48;;;;;;;2.47;1.90;;;27.70;46.00;;;;;;6110342;23;20370;-83
2022/06/22 17:42:45;;;;;;;1.77;1.67;;;27.70;46.00;;;;;;6108216;23;20392;-83
2022/06/22 17:45:24;;;;;;;1.83;1.60;;;27.70;46.00;;;;;;6109254;23;20374;-83
2022/06/22 17:55:08;;;;;;;2.00;1.80;;;27.70;46.00;;;;;;6110996;23;20386;-83
2022/06/22 18:05:13;;;;;;;1.80;1.70;;;27.70;46.10;;;;;;6080209;23;20362;-83
2022/06/22 18:11:14;;;;;;;1.97;1.77;;;27.70;46.20;;;;;;6079601;23;20419;-83
2022/06/22 18:14:15;;;;;;;2.10;1.70;;;27.70;46.20;;;;;;6080129;23;20515;-83
2022/06/22 18:17:20;;;;;;;1.90;1.77;;;27.70;46.20;;;;;;6077507;23;20469;-83
2022/06/22 18:23:33;;;;;;;1.80;1.70;;;27.70;46.20;;;;;;6010366;23;20391;-82
2022/06/22 18:26:05;;;;;;;6.17;1.70;;;27.70;46.20;;;;;;6117255;23;20404;-81
2022/06/22 18:28:34;;;;;;;3.70;1.80;;;27.70;46.20;;;;;;6109794;23;20409;-80
2022/06/22 18:31:15;;;;;;;2.90;1.73;;;27.70;46.20;;;;;;6111811;23;20435;-80
2022/06/22 18:33:49;;;;;;;4.80;2.03;;;27.80;46.20;;;;;;6109894;23;20366;-81
2022/06/22 18:36:38;;;;;;;1.87;1.77;;;27.80;46.20;;;;;;6109872;23;20366;-80
2022/06/22 18:42:28;;;;;;;4.30;1.67;;;27.80;46.20;;;;;;6110150;23;20390;-81
2022/06/22 18:45:12;;;;;;;2.30;1.70;;;27.80;46.20;;;;;;6108857;23;20892;-81
2022/06/22 18:47:52;;;;;;;1.90;1.70;;;27.80;46.30;;;;;;6108736;23;20442;-81
2022/06/22 18:50:26;;;;;;;2.90;1.90;;;27.80;46.30;;;;;;6109043;23;20445;-81
2022/06/22 18:53:26;;;;;;;2.87;1.90;;;27.80;46.30;;;;;;6108990;23;20424;-80
2022/06/22 18:56:18;;;;;;;2.50;1.83;;;27.80;46.30;;;;;;6109933;23;20374;-80
2022/06/22 18:58:53;;;;;;;2.10;1.90;;;27.80;46.30;;;;;;6111441;23;20350;-82
2022/06/22 19:01:28;;;;;;;2.87;2.00;;;27.80;46.30;;;;;;6110173;23;20396;-82
2022/06/22 19:04:04;;;;;;;3.93;1.83;;;27.80;46.30;;;;;;6113529;23;20357;-82
2022/06/22 19:06:41;;;;;;;2.43;1.93;;;27.80;46.40;;;;;;6112343;23;20357;-82